WZZ8663 LBSF-LICA
Flight info
| Callsign | WZZ8663 |
|---|---|
| Flight time | 1h 14m |
| Altitude | 36000 |
| Route | NAPET T214 LETNI T262 ERANA UT262 YNN UM600 KRK UL869 LATAN DCT GEMVI L869 CDC |
| Aircraft | A321/M-SDE3FGHIRWY/LB1 |
Departure
| Time | 2026-05-09 10:54 |
|---|---|
| Airport | Sofia Airport (LBSF) |
Arrival
| Time | 2026-05-09 12:08 |
|---|---|
| Airport | Lamezia Terme Sant'Eufemia International Airport (LICA) |
| Time | Latitude | Longitude | Altitude | Speed | Heading |
|---|---|---|---|---|---|
| 2026-05-09 10:27 | 42.69106 | 23.40200 | 1749 ft | 0 kts | 197° |
| 2026-05-09 10:44 | 42.69105 | 23.40200 | 1749 ft | 1 kts | 197° |
| 2026-05-09 10:44 | 42.69072 | 23.40189 | 1745 ft | 7 kts | 185° |
| 2026-05-09 10:45 | 42.69042 | 23.40239 | 1744 ft | 8 kts | 107° |
| 2026-05-09 10:46 | 42.68963 | 23.40604 | 1748 ft | 12 kts | 106° |
| 2026-05-09 10:46 | 42.68938 | 23.40719 | 1747 ft | 13 kts | 107° |
| 2026-05-09 10:46 | 42.68912 | 23.40839 | 1747 ft | 14 kts | 103° |
| 2026-05-09 10:46 | 42.68931 | 23.40967 | 1747 ft | 14 kts | 72° |
| 2026-05-09 10:47 | 42.68963 | 23.41100 | 1743 ft | 15 kts | 72° |
| 2026-05-09 10:47 | 42.69000 | 23.41198 | 1746 ft | 12 kts | 50° |
| 2026-05-09 10:47 | 42.69073 | 23.41212 | 1747 ft | 12 kts | 341° |
| 2026-05-09 10:47 | 42.69154 | 23.41175 | 1745 ft | 13 kts | 342° |
| 2026-05-09 10:48 | 42.69243 | 23.41151 | 1748 ft | 14 kts | 7° |
| 2026-05-09 10:48 | 42.69340 | 23.41178 | 1741 ft | 15 kts | 11° |
| 2026-05-09 10:48 | 42.69443 | 23.41208 | 1750 ft | 16 kts | 13° |
| 2026-05-09 10:48 | 42.69483 | 23.41327 | 1750 ft | 16 kts | 95° |
| 2026-05-09 10:49 | 42.69474 | 23.41481 | 1748 ft | 17 kts | 95° |
| 2026-05-09 10:49 | 42.69464 | 23.41640 | 1744 ft | 17 kts | 95° |
| 2026-05-09 10:49 | 42.69454 | 23.41808 | 1750 ft | 18 kts | 95° |
| 2026-05-09 10:49 | 42.69444 | 23.41982 | 1747 ft | 19 kts | 95° |
| 2026-05-09 10:50 | 42.69433 | 23.42163 | 1751 ft | 19 kts | 94° |
| 2026-05-09 10:50 | 42.69422 | 23.42349 | 1751 ft | 20 kts | 95° |
| 2026-05-09 10:50 | 42.69411 | 23.42541 | 1751 ft | 21 kts | 94° |
| 2026-05-09 10:50 | 42.69398 | 23.42739 | 1752 ft | 21 kts | 95° |
| 2026-05-09 10:51 | 42.69387 | 23.42939 | 1752 ft | 22 kts | 94° |
| 2026-05-09 10:51 | 42.69374 | 23.43148 | 1752 ft | 23 kts | 95° |
| 2026-05-09 10:51 | 42.69361 | 23.43363 | 1752 ft | 23 kts | 95° |
| 2026-05-09 10:51 | 42.69348 | 23.43582 | 1744 ft | 23 kts | 95° |
| 2026-05-09 10:52 | 42.69335 | 23.43795 | 1761 ft | 16 kts | 95° |
| 2026-05-09 10:52 | 42.69342 | 23.43920 | 1763 ft | 13 kts | 54° |
| 2026-05-09 10:52 | 42.69424 | 23.43951 | 1770 ft | 13 kts | 5° |
| 2026-05-09 10:52 | 42.69502 | 23.43955 | 1763 ft | 10 kts | 345° |
| 2026-05-09 10:53 | 42.69521 | 23.43842 | 1767 ft | 26 kts | 275° |
| 2026-05-09 10:53 | 42.69556 | 23.43262 | 1753 ft | 95 kts | 275° |
| 2026-05-09 10:53 | 42.69626 | 23.42086 | 1746 ft | 152 kts | 275° |
| 2026-05-09 10:53 | 42.69719 | 23.40498 | 2010 ft | 175 kts | 276° |
| 2026-05-09 10:54 | 42.69843 | 23.38843 | 2764 ft | 177 kts | 282° |
| 2026-05-09 10:54 | 42.70402 | 23.37327 | 3155 ft | 192 kts | 311° |
| 2026-05-09 10:54 | 42.71326 | 23.35897 | 3512 ft | 210 kts | 310° |
| 2026-05-09 10:54 | 42.72317 | 23.34300 | 3792 ft | 233 kts | 308° |
| 2026-05-09 10:55 | 42.73387 | 23.32507 | 4063 ft | 257 kts | 308° |
| 2026-05-09 10:55 | 42.74498 | 23.30613 | 5003 ft | 255 kts | 307° |
| 2026-05-09 10:55 | 42.75599 | 23.28694 | 5823 ft | 260 kts | 307° |
| 2026-05-09 10:55 | 42.76551 | 23.26593 | 6624 ft | 265 kts | 291° |
| 2026-05-09 10:56 | 42.76844 | 23.24112 | 7370 ft | 270 kts | 266° |
| 2026-05-09 10:56 | 42.76351 | 23.21633 | 8092 ft | 276 kts | 242° |
| 2026-05-09 10:56 | 42.75103 | 23.19636 | 8791 ft | 282 kts | 218° |
| 2026-05-09 10:56 | 42.73475 | 23.18128 | 9544 ft | 284 kts | 215° |
| 2026-05-09 10:57 | 42.71818 | 23.16629 | 10241 ft | 289 kts | 216° |
| 2026-05-09 10:57 | 42.70104 | 23.15078 | 10440 ft | 311 kts | 216° |
| 2026-05-09 10:57 | 42.68240 | 23.13384 | 10580 ft | 334 kts | 216° |
| 2026-05-09 10:57 | 42.66273 | 23.11593 | 10994 ft | 344 kts | 216° |
| 2026-05-09 10:58 | 42.64272 | 23.09773 | 11594 ft | 349 kts | 216° |
| 2026-05-09 10:58 | 42.62243 | 23.07932 | 12232 ft | 352 kts | 216° |
| 2026-05-09 10:58 | 42.60193 | 23.06070 | 12881 ft | 356 kts | 216° |
| 2026-05-09 10:58 | 42.58128 | 23.04193 | 13539 ft | 359 kts | 216° |
| 2026-05-09 10:59 | 42.56070 | 23.02323 | 14129 ft | 363 kts | 216° |
| 2026-05-09 10:59 | 42.53961 | 23.00407 | 14726 ft | 366 kts | 216° |
| 2026-05-09 10:59 | 42.51837 | 22.98478 | 15326 ft | 369 kts | 216° |
| 2026-05-09 10:59 | 42.49691 | 22.96533 | 15953 ft | 373 kts | 215° |
| 2026-05-09 11:00 | 42.47523 | 22.94571 | 16608 ft | 377 kts | 215° |
| 2026-05-09 11:00 | 42.45334 | 22.92593 | 17266 ft | 380 kts | 215° |
| 2026-05-09 11:00 | 42.43123 | 22.90597 | 17919 ft | 384 kts | 214° |
| 2026-05-09 11:00 | 42.40892 | 22.88582 | 18529 ft | 387 kts | 214° |
| 2026-05-09 11:01 | 42.38641 | 22.86555 | 19063 ft | 391 kts | 214° |
| 2026-05-09 11:01 | 42.36401 | 22.84540 | 19584 ft | 393 kts | 215° |
| 2026-05-09 11:01 | 42.34117 | 22.82479 | 20137 ft | 396 kts | 215° |
| 2026-05-09 11:01 | 42.31816 | 22.80402 | 20685 ft | 399 kts | 215° |
| 2026-05-09 11:02 | 42.29505 | 22.78315 | 21226 ft | 401 kts | 216° |
| 2026-05-09 11:02 | 42.27171 | 22.76214 | 21718 ft | 405 kts | 216° |
| 2026-05-09 11:02 | 42.24819 | 22.74103 | 22219 ft | 407 kts | 216° |
| 2026-05-09 11:02 | 42.22452 | 22.71980 | 22715 ft | 410 kts | 216° |
| 2026-05-09 11:03 | 42.20069 | 22.69844 | 23185 ft | 413 kts | 216° |
| 2026-05-09 11:03 | 42.17702 | 22.67726 | 23671 ft | 415 kts | 216° |
| 2026-05-09 11:03 | 42.15287 | 22.65572 | 24065 ft | 417 kts | 216° |
| 2026-05-09 11:03 | 42.12857 | 22.63407 | 24464 ft | 420 kts | 216° |
| 2026-05-09 11:04 | 42.10363 | 22.61323 | 24829 ft | 426 kts | 210° |
| 2026-05-09 11:04 | 42.07619 | 22.59757 | 25196 ft | 432 kts | 200° |
| 2026-05-09 11:04 | 42.04723 | 22.58606 | 25586 ft | 435 kts | 199° |
| 2026-05-09 11:04 | 42.01815 | 22.57461 | 25952 ft | 437 kts | 199° |
| 2026-05-09 11:05 | 41.98889 | 22.56300 | 26330 ft | 439 kts | 199° |
| 2026-05-09 11:05 | 41.95950 | 22.55131 | 26714 ft | 441 kts | 199° |
| 2026-05-09 11:05 | 41.93034 | 22.53972 | 27059 ft | 444 kts | 199° |
| 2026-05-09 11:05 | 41.90062 | 22.52791 | 27415 ft | 447 kts | 199° |
| 2026-05-09 11:06 | 41.87078 | 22.51605 | 27771 ft | 449 kts | 199° |
| 2026-05-09 11:06 | 41.84076 | 22.50415 | 28119 ft | 451 kts | 199° |
| 2026-05-09 11:06 | 41.81057 | 22.49222 | 28450 ft | 454 kts | 199° |
| 2026-05-09 11:06 | 41.78022 | 22.48024 | 28817 ft | 456 kts | 199° |
| 2026-05-09 11:07 | 41.74972 | 22.46824 | 29166 ft | 458 kts | 199° |
| 2026-05-09 11:07 | 41.71905 | 22.45619 | 29517 ft | 460 kts | 199° |
| 2026-05-09 11:07 | 41.68826 | 22.44406 | 29855 ft | 463 kts | 199° |
| 2026-05-09 11:07 | 41.65728 | 22.43193 | 30194 ft | 464 kts | 199° |
| 2026-05-09 11:08 | 41.62672 | 22.41996 | 30592 ft | 463 kts | 199° |
| 2026-05-09 11:08 | 41.59587 | 22.40788 | 30988 ft | 462 kts | 199° |
| 2026-05-09 11:08 | 41.56506 | 22.39581 | 31376 ft | 461 kts | 199° |
| 2026-05-09 11:08 | 41.53431 | 22.38376 | 31770 ft | 460 kts | 199° |
| 2026-05-09 11:09 | 41.50363 | 22.37179 | 32164 ft | 459 kts | 199° |
| 2026-05-09 11:09 | 41.47300 | 22.35983 | 32552 ft | 458 kts | 199° |
| 2026-05-09 11:09 | 41.44247 | 22.34791 | 32925 ft | 457 kts | 199° |
| 2026-05-09 11:09 | 41.42227 | 22.34001 | 33187 ft | 456 kts | 199° |
| 2026-05-09 11:10 | 41.38196 | 22.32429 | 33759 ft | 455 kts | 199° |
| 2026-05-09 11:10 | 41.35168 | 22.31248 | 34192 ft | 453 kts | 199° |
| 2026-05-09 11:10 | 41.32149 | 22.30073 | 34503 ft | 452 kts | 199° |
| 2026-05-09 11:10 | 41.29128 | 22.28902 | 34792 ft | 452 kts | 199° |
| 2026-05-09 11:11 | 41.27131 | 22.28129 | 34988 ft | 452 kts | 200° |
| 2026-05-09 11:11 | 41.23100 | 22.26567 | 35362 ft | 451 kts | 200° |
| 2026-05-09 11:11 | 41.21101 | 22.25795 | 35533 ft | 451 kts | 200° |
| 2026-05-09 11:11 | 41.18117 | 22.24531 | 35783 ft | 448 kts | 206° |
| 2026-05-09 11:12 | 41.14472 | 22.22047 | 36029 ft | 443 kts | 218° |
| 2026-05-09 11:12 | 41.09553 | 22.17206 | 36071 ft | 440 kts | 221° |
| 2026-05-09 11:13 | 41.05490 | 22.13163 | 36066 ft | 439 kts | 220° |
| 2026-05-09 11:13 | 41.00591 | 22.08321 | 36068 ft | 440 kts | 221° |
| 2026-05-09 11:14 | 40.95687 | 22.03480 | 36072 ft | 440 kts | 221° |
| 2026-05-09 11:14 | 40.90783 | 21.98636 | 36075 ft | 440 kts | 221° |
| 2026-05-09 11:15 | 40.85874 | 21.93793 | 36075 ft | 441 kts | 221° |
| 2026-05-09 11:15 | 40.80987 | 21.88992 | 36091 ft | 440 kts | 221° |
| 2026-05-09 11:16 | 40.76061 | 21.84174 | 36089 ft | 441 kts | 221° |
| 2026-05-09 11:16 | 40.71136 | 21.79350 | 36099 ft | 441 kts | 221° |
| 2026-05-09 11:17 | 40.66212 | 21.74529 | 36086 ft | 441 kts | 221° |
| 2026-05-09 11:17 | 40.61321 | 21.69751 | 36089 ft | 441 kts | 221° |
| 2026-05-09 11:18 | 40.56396 | 21.64954 | 36084 ft | 440 kts | 221° |
| 2026-05-09 11:18 | 40.51468 | 21.60168 | 36081 ft | 440 kts | 222° |
| 2026-05-09 11:19 | 40.46547 | 21.55393 | 36079 ft | 439 kts | 222° |
| 2026-05-09 11:19 | 40.41659 | 21.50656 | 36084 ft | 440 kts | 222° |
| 2026-05-09 11:20 | 40.36741 | 21.45901 | 36081 ft | 439 kts | 222° |
| 2026-05-09 11:20 | 40.31826 | 21.41148 | 36071 ft | 439 kts | 223° |
| 2026-05-09 11:21 | 40.26913 | 21.36402 | 36072 ft | 439 kts | 223° |
| 2026-05-09 11:21 | 40.22027 | 21.31709 | 36073 ft | 438 kts | 223° |
| 2026-05-09 11:22 | 40.17115 | 21.26989 | 36052 ft | 438 kts | 224° |
| 2026-05-09 11:22 | 40.12206 | 21.22271 | 36061 ft | 438 kts | 224° |
| 2026-05-09 11:23 | 40.07294 | 21.17567 | 36071 ft | 438 kts | 223° |
| 2026-05-09 11:23 | 40.02411 | 21.12907 | 36069 ft | 438 kts | 224° |
| 2026-05-09 11:24 | 39.97501 | 21.08226 | 36081 ft | 437 kts | 225° |
| 2026-05-09 11:24 | 39.92592 | 21.03550 | 36091 ft | 437 kts | 225° |
| 2026-05-09 11:25 | 39.87678 | 20.98880 | 36098 ft | 437 kts | 225° |
| 2026-05-09 11:25 | 39.82823 | 20.94256 | 36079 ft | 435 kts | 225° |
| 2026-05-09 11:26 | 39.77925 | 20.89617 | 36098 ft | 436 kts | 225° |
| 2026-05-09 11:26 | 39.73036 | 20.84970 | 36100 ft | 432 kts | 229° |
| 2026-05-09 11:26 | 39.70909 | 20.82305 | 36106 ft | 420 kts | 238° |
| 2026-05-09 11:27 | 39.69209 | 20.79292 | 36088 ft | 409 kts | 248° |
| 2026-05-09 11:27 | 39.66840 | 20.72778 | 36102 ft | 400 kts | 254° |
| 2026-05-09 11:28 | 39.64603 | 20.66175 | 36092 ft | 399 kts | 254° |
| 2026-05-09 11:28 | 39.62362 | 20.59604 | 36079 ft | 399 kts | 254° |
| 2026-05-09 11:29 | 39.60120 | 20.53033 | 36080 ft | 398 kts | 255° |
| 2026-05-09 11:29 | 39.57876 | 20.46476 | 36063 ft | 398 kts | 254° |
| 2026-05-09 11:30 | 39.55647 | 20.39979 | 36068 ft | 396 kts | 254° |
| 2026-05-09 11:30 | 39.53417 | 20.33457 | 36076 ft | 396 kts | 254° |
| 2026-05-09 11:31 | 39.51181 | 20.26942 | 36061 ft | 396 kts | 254° |
| 2026-05-09 11:31 | 39.48937 | 20.20438 | 36065 ft | 396 kts | 253° |
| 2026-05-09 11:32 | 39.46699 | 20.13981 | 36067 ft | 396 kts | 253° |
| 2026-05-09 11:32 | 39.44548 | 20.07456 | 36057 ft | 390 kts | 260° |
| 2026-05-09 11:33 | 39.43488 | 20.00677 | 36058 ft | 383 kts | 266° |
| 2026-05-09 11:33 | 39.42102 | 19.90525 | 36067 ft | 384 kts | 265° |
| 2026-05-09 11:34 | 39.41155 | 19.83721 | 36070 ft | 385 kts | 265° |
| 2026-05-09 11:34 | 39.40209 | 19.76913 | 36039 ft | 385 kts | 265° |
| 2026-05-09 11:35 | 39.39270 | 19.70101 | 36061 ft | 385 kts | 265° |
| 2026-05-09 11:35 | 39.38346 | 19.63331 | 36070 ft | 385 kts | 265° |
| 2026-05-09 11:36 | 39.37411 | 19.56515 | 36078 ft | 385 kts | 265° |
| 2026-05-09 11:36 | 39.36456 | 19.49697 | 36079 ft | 385 kts | 265° |
| 2026-05-09 11:37 | 39.35490 | 19.42886 | 36074 ft | 386 kts | 265° |
| 2026-05-09 11:37 | 39.34522 | 19.36068 | 36090 ft | 386 kts | 265° |
| 2026-05-09 11:38 | 39.33551 | 19.29288 | 36093 ft | 386 kts | 265° |
| 2026-05-09 11:38 | 39.32575 | 19.22467 | 36110 ft | 386 kts | 265° |
| 2026-05-09 11:39 | 39.31594 | 19.15649 | 36102 ft | 386 kts | 265° |
| 2026-05-09 11:40 | 39.30119 | 19.05428 | 36068 ft | 386 kts | 264° |
| 2026-05-09 11:40 | 39.29139 | 18.98660 | 36079 ft | 386 kts | 264° |
| 2026-05-09 11:41 | 39.28144 | 18.91843 | 36095 ft | 387 kts | 264° |
| 2026-05-09 11:41 | 39.27139 | 18.85015 | 36101 ft | 387 kts | 264° |
| 2026-05-09 11:42 | 39.26131 | 18.78191 | 36111 ft | 388 kts | 264° |
| 2026-05-09 11:42 | 39.25126 | 18.71404 | 36070 ft | 388 kts | 264° |
| 2026-05-09 11:42 | 39.24618 | 18.67985 | 35813 ft | 387 kts | 264° |
| 2026-05-09 11:43 | 39.24109 | 18.64579 | 35565 ft | 387 kts | 263° |
| 2026-05-09 11:43 | 39.23601 | 18.61173 | 35321 ft | 386 kts | 263° |
| 2026-05-09 11:43 | 39.23094 | 18.57774 | 34887 ft | 385 kts | 263° |
| 2026-05-09 11:43 | 39.22588 | 18.54383 | 34317 ft | 386 kts | 263° |
| 2026-05-09 11:44 | 39.22079 | 18.50973 | 33574 ft | 389 kts | 263° |
| 2026-05-09 11:44 | 39.21565 | 18.47551 | 32897 ft | 389 kts | 263° |
| 2026-05-09 11:44 | 39.21052 | 18.44166 | 32270 ft | 389 kts | 263° |
| 2026-05-09 11:44 | 39.20535 | 18.40771 | 31877 ft | 383 kts | 263° |
| 2026-05-09 11:45 | 39.20026 | 18.37419 | 31447 ft | 379 kts | 263° |
| 2026-05-09 11:45 | 39.19527 | 18.34102 | 30999 ft | 375 kts | 263° |
| 2026-05-09 11:45 | 39.19035 | 18.30823 | 30561 ft | 371 kts | 263° |
| 2026-05-09 11:45 | 39.18545 | 18.27569 | 30118 ft | 368 kts | 263° |
| 2026-05-09 11:46 | 39.18058 | 18.24351 | 29638 ft | 364 kts | 263° |
| 2026-05-09 11:46 | 39.17573 | 18.21173 | 29209 ft | 359 kts | 262° |
| 2026-05-09 11:46 | 39.17095 | 18.18074 | 28797 ft | 355 kts | 262° |
| 2026-05-09 11:46 | 39.16615 | 18.14972 | 28383 ft | 351 kts | 262° |
| 2026-05-09 11:47 | 39.16140 | 18.11898 | 27972 ft | 348 kts | 263° |
| 2026-05-09 11:47 | 39.15671 | 18.08855 | 27561 ft | 345 kts | 263° |
| 2026-05-09 11:47 | 39.15204 | 18.05831 | 27158 ft | 343 kts | 263° |
| 2026-05-09 11:47 | 39.14738 | 18.02825 | 26763 ft | 341 kts | 263° |
| 2026-05-09 11:48 | 39.14275 | 17.99845 | 26367 ft | 338 kts | 263° |
| 2026-05-09 11:48 | 39.13813 | 17.96890 | 25985 ft | 335 kts | 263° |
| 2026-05-09 11:48 | 39.13363 | 17.93991 | 25611 ft | 333 kts | 263° |
| 2026-05-09 11:48 | 39.12913 | 17.91078 | 25241 ft | 331 kts | 263° |
| 2026-05-09 11:49 | 39.12464 | 17.88179 | 24877 ft | 329 kts | 263° |
| 2026-05-09 11:49 | 39.12017 | 17.85301 | 24518 ft | 327 kts | 263° |
| 2026-05-09 11:49 | 39.11571 | 17.82438 | 24117 ft | 325 kts | 263° |
| 2026-05-09 11:49 | 39.11124 | 17.79587 | 23722 ft | 324 kts | 263° |
| 2026-05-09 11:50 | 39.10676 | 17.76756 | 23286 ft | 322 kts | 263° |
| 2026-05-09 11:50 | 39.10230 | 17.73939 | 22877 ft | 320 kts | 263° |
| 2026-05-09 11:50 | 39.09791 | 17.71179 | 22517 ft | 318 kts | 263° |
| 2026-05-09 11:50 | 39.09346 | 17.68397 | 22123 ft | 317 kts | 263° |
| 2026-05-09 11:51 | 39.08901 | 17.65624 | 21733 ft | 315 kts | 263° |
| 2026-05-09 11:51 | 39.08460 | 17.62865 | 21344 ft | 314 kts | 263° |
| 2026-05-09 11:51 | 39.08022 | 17.60114 | 20940 ft | 313 kts | 263° |
| 2026-05-09 11:51 | 39.07583 | 17.57375 | 20526 ft | 312 kts | 263° |
| 2026-05-09 11:52 | 39.07143 | 17.54644 | 20119 ft | 311 kts | 263° |
| 2026-05-09 11:52 | 39.06704 | 17.51921 | 19709 ft | 310 kts | 263° |
| 2026-05-09 11:52 | 39.06270 | 17.49211 | 19294 ft | 309 kts | 263° |
| 2026-05-09 11:52 | 39.05844 | 17.46544 | 18884 ft | 308 kts | 263° |
| 2026-05-09 11:53 | 39.05413 | 17.43849 | 18471 ft | 307 kts | 263° |
| 2026-05-09 11:53 | 39.04980 | 17.41159 | 18010 ft | 307 kts | 263° |
| 2026-05-09 11:53 | 39.04544 | 17.38476 | 17571 ft | 305 kts | 262° |
| 2026-05-09 11:53 | 39.04111 | 17.35812 | 17171 ft | 304 kts | 262° |
| 2026-05-09 11:54 | 39.03680 | 17.33161 | 16749 ft | 302 kts | 262° |
| 2026-05-09 11:54 | 39.03251 | 17.30525 | 16346 ft | 301 kts | 262° |
| 2026-05-09 11:54 | 39.02821 | 17.27901 | 15934 ft | 299 kts | 262° |
| 2026-05-09 11:54 | 39.02391 | 17.25291 | 15528 ft | 298 kts | 262° |
| 2026-05-09 11:55 | 39.01968 | 17.22727 | 15123 ft | 297 kts | 262° |
| 2026-05-09 11:56 | 38.99858 | 17.09877 | 13065 ft | 291 kts | 262° |
| 2026-05-09 11:56 | 38.99304 | 17.07377 | 12659 ft | 292 kts | 252° |
| 2026-05-09 11:56 | 38.98511 | 17.04971 | 12265 ft | 294 kts | 251° |
| 2026-05-09 11:57 | 38.97700 | 17.02481 | 11872 ft | 307 kts | 251° |
| 2026-05-09 11:57 | 38.96875 | 16.99981 | 11593 ft | 309 kts | 251° |
| 2026-05-09 11:57 | 38.96027 | 16.97444 | 11350 ft | 309 kts | 250° |
| 2026-05-09 11:57 | 38.95176 | 16.94917 | 11109 ft | 308 kts | 250° |
| 2026-05-09 11:58 | 38.94330 | 16.92414 | 10843 ft | 302 kts | 250° |
| 2026-05-09 11:58 | 38.93499 | 16.89951 | 10523 ft | 298 kts | 250° |
| 2026-05-09 11:58 | 38.92692 | 16.87558 | 10401 ft | 286 kts | 250° |
| 2026-05-09 11:58 | 38.91915 | 16.85250 | 10201 ft | 279 kts | 250° |
| 2026-05-09 11:59 | 38.91159 | 16.82999 | 10132 ft | 274 kts | 251° |
| 2026-05-09 11:59 | 38.90416 | 16.80775 | 9960 ft | 275 kts | 251° |
| 2026-05-09 11:59 | 38.89673 | 16.78559 | 9797 ft | 263 kts | 250° |
| 2026-05-09 11:59 | 38.88964 | 16.76467 | 9633 ft | 250 kts | 250° |
| 2026-05-09 12:00 | 38.88280 | 16.74442 | 9258 ft | 245 kts | 251° |
| 2026-05-09 12:00 | 38.87610 | 16.72455 | 8738 ft | 240 kts | 250° |
| 2026-05-09 12:00 | 38.86953 | 16.70509 | 8206 ft | 235 kts | 250° |
| 2026-05-09 12:00 | 38.86306 | 16.68600 | 7878 ft | 230 kts | 250° |
| 2026-05-09 12:01 | 38.85780 | 16.66718 | 7585 ft | 227 kts | 262° |
| 2026-05-09 12:01 | 38.85726 | 16.64721 | 7247 ft | 226 kts | 279° |
| 2026-05-09 12:01 | 38.85966 | 16.62733 | 6965 ft | 227 kts | 281° |
| 2026-05-09 12:01 | 38.86212 | 16.60710 | 6553 ft | 231 kts | 280° |
| 2026-05-09 12:02 | 38.86454 | 16.58698 | 6081 ft | 226 kts | 279° |
| 2026-05-09 12:02 | 38.86691 | 16.56720 | 5598 ft | 223 kts | 279° |
| 2026-05-09 12:02 | 38.86925 | 16.54771 | 5083 ft | 219 kts | 278° |
| 2026-05-09 12:02 | 38.87154 | 16.52851 | 4530 ft | 218 kts | 278° |
| 2026-05-09 12:03 | 38.87384 | 16.50926 | 3990 ft | 219 kts | 277° |
| 2026-05-09 12:03 | 38.87611 | 16.49024 | 3600 ft | 218 kts | 277° |
| 2026-05-09 12:03 | 38.87836 | 16.47139 | 3294 ft | 208 kts | 277° |
| 2026-05-09 12:03 | 38.88048 | 16.45357 | 2990 ft | 195 kts | 277° |
| 2026-05-09 12:04 | 38.88244 | 16.43712 | 2745 ft | 178 kts | 277° |
| 2026-05-09 12:04 | 38.88424 | 16.42202 | 2529 ft | 165 kts | 276° |
| 2026-05-09 12:04 | 38.88590 | 16.40798 | 2354 ft | 155 kts | 276° |
| 2026-05-09 12:04 | 38.88749 | 16.39452 | 2158 ft | 152 kts | 275° |
| 2026-05-09 12:05 | 38.88907 | 16.38116 | 1956 ft | 151 kts | 275° |
| 2026-05-09 12:05 | 38.89063 | 16.36796 | 1759 ft | 152 kts | 274° |
| 2026-05-09 12:05 | 38.89219 | 16.35465 | 1559 ft | 150 kts | 274° |
| 2026-05-09 12:05 | 38.89369 | 16.34140 | 1296 ft | 145 kts | 275° |
| 2026-05-09 12:06 | 38.89512 | 16.32864 | 1130 ft | 143 kts | 278° |
| 2026-05-09 12:06 | 38.89670 | 16.31607 | 913 ft | 141 kts | 278° |
| 2026-05-09 12:06 | 38.89824 | 16.30383 | 732 ft | 138 kts | 277° |
| 2026-05-09 12:06 | 38.89978 | 16.29154 | 581 ft | 140 kts | 279° |
| 2026-05-09 12:07 | 38.90117 | 16.27925 | 370 ft | 138 kts | 276° |
| 2026-05-09 12:07 | 38.90255 | 16.26707 | 198 ft | 137 kts | 277° |
| 2026-05-09 12:07 | 38.90390 | 16.25520 | 40 ft | 131 kts | 277° |
| 2026-05-09 12:07 | 38.90500 | 16.24569 | 32 ft | 74 kts | 278° |
| 2026-05-09 12:08 | 38.90566 | 16.24008 | 30 ft | 48 kts | 278° |
| 2026-05-09 12:08 | 38.90628 | 16.23668 | 31 ft | 28 kts | 303° |
| 2026-05-09 12:08 | 38.90703 | 16.23537 | 34 ft | 14 kts | 306° |
| 2026-05-09 12:08 | 38.90789 | 16.23479 | 32 ft | 16 kts | 7° |
| 2026-05-09 12:09 | 38.90838 | 16.23594 | 32 ft | 17 kts | 95° |
| 2026-05-09 12:09 | 38.90819 | 16.23749 | 32 ft | 18 kts | 98° |
| 2026-05-09 12:09 | 38.90800 | 16.23912 | 32 ft | 19 kts | 98° |
| 2026-05-09 12:10 | 38.90736 | 16.24469 | 32 ft | 22 kts | 98° |
| 2026-05-09 12:10 | 38.90745 | 16.24587 | 30 ft | 9 kts | 12° |
| 2026-05-09 12:10 | 38.90806 | 16.24585 | 32 ft | 9 kts | 9° |
| 2026-05-09 12:11 | 38.90851 | 16.24596 | 32 ft | 4 kts | 18° |
| 2026-05-09 12:11 | 38.90860 | 16.24608 | 32 ft | 2 kts | 52° |
| 2026-05-09 12:11 | 38.90861 | 16.24610 | 32 ft | 0 kts | 52° |